createdAt,value
2018-08-10T00:02:22.801Z,79.04
2018-08-10T00:04:53.460Z,78.98
2018-08-10T00:07:24.287Z,79.14
2018-08-10T00:09:54.993Z,77.97
2018-08-10T00:12:26.026Z,77.84
2018-08-10T00:14:56.753Z,77.25
2018-08-10T00:17:27.346Z,76.83
2018-08-10T00:19:57.898Z,77.04
2018-08-10T00:22:28.175Z,77.82
2018-08-10T00:24:58.450Z,76.50
2018-08-10T00:27:28.764Z,76.46
2018-08-10T00:29:58.947Z,77.03
2018-08-10T00:32:29.094Z,77.43
2018-08-10T00:34:59.255Z,76.99
2018-08-10T00:37:29.359Z,77.10
2018-08-10T00:39:59.601Z,76.46
2018-08-10T00:42:29.875Z,76.37
2018-08-10T00:45:00.149Z,76.97
2018-08-10T00:47:30.333Z,75.98
2018-08-10T00:50:00.420Z,76.41
2018-08-10T00:52:30.629Z,76.31
2018-08-10T00:55:00.816Z,75.83
2018-08-10T00:57:30.953Z,76.46
2018-08-10T01:00:01.156Z,76.19
2018-08-10T01:02:31.860Z,75.53
2018-08-10T01:05:02.097Z,76.12
2018-08-10T01:07:32.197Z,76.47
2018-08-10T01:10:02.349Z,76.94
2018-08-10T01:12:32.480Z,77.35
2018-08-10T01:15:02.625Z,76.69
2018-08-10T01:17:32.800Z,77.13
2018-08-10T01:20:04.569Z,76.28
2018-08-10T01:22:38.729Z,76.66
2018-08-10T01:25:08.985Z,76.86
2018-08-10T01:27:44.088Z,76.49
2018-08-10T01:30:14.345Z,76.65
2018-08-10T01:32:44.470Z,76.99
2018-08-10T01:35:14.591Z,78.08
2018-08-10T01:37:44.748Z,77.91
2018-08-10T01:40:14.946Z,78.95
2018-08-10T01:42:45.096Z,79.09
2018-08-10T01:45:15.268Z,78.93
2018-08-10T01:47:45.424Z,78.96
2018-08-10T01:50:15.746Z,77.86
2018-08-10T01:52:45.965Z,78.04
2018-08-10T01:55:16.195Z,77.30
2018-08-10T01:57:46.370Z,77.39
2018-08-10T02:00:16.510Z,77.68
2018-08-10T02:02:46.729Z,77.52
2018-08-10T02:05:17.150Z,76.21
2018-08-10T02:07:47.253Z,76.78
2018-08-10T02:10:18.856Z,77.70
2018-08-10T02:12:58.545Z,78.29
2018-08-10T02:15:28.677Z,78.91
2018-08-10T02:17:58.902Z,79.34
2018-08-10T02:20:29.036Z,78.78
2018-08-10T02:22:59.152Z,78.66
2018-08-10T02:25:29.331Z,79.05
2018-08-10T02:27:59.490Z,78.90
2018-08-10T02:30:29.645Z,78.94
2018-08-10T02:32:59.717Z,78.94
2018-08-10T02:35:29.814Z,78.86
2018-08-10T02:37:59.874Z,76.35
2018-08-10T02:40:30.075Z,76.13
2018-08-10T02:43:00.186Z,75.98
2018-08-10T02:45:30.355Z,75.97
2018-08-10T02:48:00.449Z,75.55
2018-08-10T02:50:30.675Z,76.44
2018-08-10T02:53:00.811Z,76.04
2018-08-10T02:55:31.576Z,76.30
2018-08-10T02:58:01.696Z,76.80
2018-08-10T03:00:31.831Z,77.71
2018-08-10T03:03:01.885Z,79.26
2018-08-10T03:05:32.001Z,79.06
2018-08-10T03:08:02.237Z,79.20
2018-08-10T03:10:32.451Z,80.06
2018-08-10T03:13:02.621Z,80.12
2018-08-10T03:15:32.828Z,80.46
2018-08-10T03:18:03.426Z,80.61
2018-08-10T03:20:33.581Z,81.24
2018-08-10T03:23:03.799Z,81.49
2018-08-10T03:25:33.925Z,81.58
2018-08-10T03:28:04.089Z,81.74
2018-08-10T03:30:34.179Z,81.70
2018-08-10T03:33:04.531Z,82.44
2018-08-10T03:35:34.818Z,82.53
2018-08-10T03:38:04.924Z,82.59
2018-08-10T03:40:35.061Z,82.98
2018-08-10T03:43:05.131Z,83.26
2018-08-10T03:45:35.237Z,83.23
2018-08-10T03:48:05.755Z,83.51
2018-08-10T03:50:35.916Z,83.99
2018-08-10T03:53:06.297Z,84.72
2018-08-10T03:55:36.520Z,84.85
2018-08-10T03:58:06.675Z,85.47
2018-08-10T04:00:36.827Z,85.26
2018-08-10T04:03:07.402Z,85.58
2018-08-10T04:05:44.213Z,86.28
2018-08-10T04:08:14.443Z,87.19
2018-08-10T04:10:44.550Z,87.32
2018-08-10T04:13:14.665Z,88.02
2018-08-10T04:15:44.961Z,87.85
2018-08-10T04:18:15.045Z,87.74
2018-08-10T04:20:45.195Z,88.16
2018-08-10T04:23:15.301Z,87.25
2018-08-10T04:25:45.456Z,87.88
2018-08-10T04:28:15.576Z,87.81
2018-08-10T04:30:45.728Z,88.23
2018-08-10T04:33:15.791Z,87.09
2018-08-10T04:35:45.941Z,87.27
2018-08-10T04:38:16.016Z,87.88
2018-08-10T04:40:46.148Z,88.54
2018-08-10T04:43:16.192Z,87.31
2018-08-10T04:45:46.350Z,87.62
2018-08-10T04:48:16.566Z,88.11
2018-08-10T04:50:46.689Z,87.82
2018-08-10T04:53:16.808Z,87.74
2018-08-10T04:55:47.093Z,87.44
2018-08-10T04:58:17.221Z,87.72
2018-08-10T05:00:47.359Z,87.33
2018-08-10T05:03:17.562Z,86.75
2018-08-10T05:05:47.806Z,86.66
2018-08-10T05:08:17.922Z,86.14
2018-08-10T05:10:48.104Z,86.43
2018-08-10T05:13:18.216Z,85.81
2018-08-10T05:15:48.462Z,86.09
2018-08-10T05:18:18.543Z,86.22
2018-08-10T05:20:48.684Z,85.06
2018-08-10T05:23:18.790Z,84.84
2018-08-10T05:25:48.981Z,84.57
2018-08-10T05:28:19.065Z,84.74
2018-08-10T05:30:49.343Z,84.16
2018-08-10T05:33:19.480Z,84.55
2018-08-10T05:35:49.679Z,84.14
2018-08-10T05:38:19.833Z,83.73
2018-08-10T05:40:50.046Z,83.34
2018-08-10T05:43:20.172Z,82.78
2018-08-10T05:45:55.497Z,83.12
2018-08-10T05:48:25.664Z,81.95
2018-08-10T05:50:55.838Z,81.43
2018-08-10T05:53:25.919Z,81.02
2018-08-10T05:55:56.159Z,77.82
2018-08-10T05:58:26.339Z,73.57
2018-08-10T06:00:56.539Z,69.59
2018-08-10T06:03:27.540Z,64.91
2018-08-10T06:05:57.735Z,61.43
2018-08-10T06:08:27.848Z,57.17
2018-08-10T06:10:57.977Z,55.39
2018-08-10T06:13:28.114Z,53.48
2018-08-10T06:15:58.305Z,52.13
2018-08-10T06:18:28.457Z,52.14
2018-08-10T06:20:58.539Z,50.77
2018-08-10T06:23:28.630Z,50.89
2018-08-10T06:25:58.782Z,48.86
2018-08-10T06:28:28.901Z,48.65
2018-08-10T06:30:59.064Z,46.16
2018-08-10T06:33:29.154Z,46.42
2018-08-10T06:35:59.286Z,45.20
2018-08-10T06:38:29.409Z,44.73
2018-08-10T06:40:59.668Z,44.94
2018-08-10T06:43:29.751Z,44.37
2018-08-10T06:45:59.926Z,43.43
2018-08-10T06:48:30.088Z,43.12
2018-08-10T06:51:00.159Z,44.65
2018-08-10T06:53:30.309Z,44.21
2018-08-10T06:56:01.496Z,43.68
2018-08-10T06:58:31.635Z,43.44
2018-08-10T07:01:01.806Z,42.02
2018-08-10T07:03:31.912Z,39.81
2018-08-10T07:06:02.052Z,42.01
2018-08-10T07:08:32.361Z,42.61
2018-08-10T07:11:02.483Z,46.71
2018-08-10T07:13:32.767Z,55.94
2018-08-10T07:16:02.964Z,65.30
2018-08-10T07:18:33.573Z,67.98
2018-08-10T07:21:03.719Z,78.24
2018-08-10T07:23:33.894Z,80.42
2018-08-10T07:26:03.975Z,84.75
2018-08-10T07:28:34.140Z,86.18
2018-08-10T07:31:04.209Z,86.51
2018-08-10T07:33:34.407Z,84.75
2018-08-10T07:36:04.567Z,83.63
2018-08-10T07:38:34.707Z,83.56
2018-08-10T07:41:04.789Z,80.21
2018-08-10T07:43:34.943Z,75.08
2018-08-10T07:46:05.050Z,68.71
2018-08-10T07:48:39.100Z,66.66
2018-08-10T07:51:09.585Z,64.94
2018-08-10T07:53:39.722Z,55.23
2018-08-10T07:56:09.806Z,56.63
2018-08-10T07:58:39.915Z,57.54
2018-08-10T08:01:10.077Z,54.85
2018-08-10T08:03:40.300Z,53.61
2018-08-10T08:06:10.548Z,49.88
2018-08-10T08:08:40.657Z,47.50
2018-08-10T08:11:10.879Z,50.36
2018-08-10T08:13:41.071Z,52.87
2018-08-10T08:16:11.482Z,54.48
2018-08-10T08:18:41.621Z,56.09
2018-08-10T08:21:12.835Z,52.58
2018-08-10T08:23:42.915Z,50.85
2018-08-10T08:26:13.150Z,50.43
2018-08-10T08:28:43.287Z,51.50
2018-08-10T08:31:13.520Z,52.50
2018-08-10T08:34:05.973Z,51.25
2018-08-10T08:36:36.734Z,55.04
2018-08-10T08:41:21.177Z,49.31
2018-08-10T08:46:02.334Z,43.36
2018-08-10T08:48:35.905Z,47.09
2018-08-10T08:51:08.613Z,47.92
2018-08-10T08:53:38.810Z,51.56
2018-08-10T08:56:10.687Z,46.63
2018-08-10T08:58:41.838Z,45.25
2018-08-10T09:01:12.300Z,51.04
2018-08-10T09:05:03.129Z,49.00
2018-08-10T09:07:33.545Z,47.37
2018-08-10T09:10:06.004Z,42.13
2018-08-10T09:12:36.168Z,42.86
2018-08-10T09:15:09.150Z,39.94
2018-08-10T09:17:39.440Z,39.99
2018-08-10T09:20:10.540Z,41.86
2018-08-10T09:22:40.831Z,44.31
2018-08-10T09:25:15.152Z,46.86
2018-08-10T09:27:45.368Z,47.15
2018-08-10T09:30:18.208Z,42.75
2018-08-10T09:32:48.471Z,43.91
2018-08-10T09:35:18.673Z,43.29
2018-08-10T09:37:48.843Z,42.93
2018-08-10T09:40:20.529Z,43.63
2018-08-10T09:42:50.812Z,47.11
2018-08-10T09:45:21.087Z,52.15
2018-08-10T09:50:21.537Z,46.08
2018-08-10T09:53:01.496Z,42.44
2018-08-10T09:55:33.858Z,42.06
2018-08-10T09:58:12.903Z,40.48
2018-08-10T10:00:48.325Z,42.37
2018-08-10T10:03:20.912Z,41.62
2018-08-10T10:05:52.053Z,41.14
2018-08-10T10:08:22.775Z,42.26
2018-08-10T10:10:52.998Z,45.10
2018-08-10T10:13:23.311Z,41.18
2018-08-10T10:15:53.434Z,41.81
2018-08-10T10:18:23.649Z,41.68
2018-08-10T10:20:53.919Z,43.09
2018-08-10T10:23:24.062Z,41.91
2018-08-10T10:25:54.163Z,45.42
2018-08-10T10:28:24.374Z,41.67
2018-08-10T10:30:54.510Z,39.94
2018-08-10T10:33:24.621Z,39.81
2018-08-10T10:35:54.823Z,41.35
2018-08-10T10:38:25.148Z,39.73
2018-08-10T10:40:55.218Z,38.37
2018-08-10T10:43:25.329Z,39.27
2018-08-10T10:45:55.428Z,37.46
2018-08-10T10:48:25.596Z,36.19
2018-08-10T10:50:55.828Z,36.00
2018-08-10T10:53:25.968Z,35.81
2018-08-10T10:55:56.212Z,36.18
2018-08-10T10:58:26.357Z,35.79
2018-08-10T11:00:56.584Z,35.77
2018-08-10T11:03:26.685Z,35.54
2018-08-10T11:05:56.821Z,35.60
2018-08-10T11:08:27.018Z,36.55
2018-08-10T11:10:57.187Z,37.31
2018-08-10T11:13:27.450Z,39.30
2018-08-10T11:15:57.557Z,37.36
2018-08-10T11:18:27.804Z,37.84
2018-08-10T11:20:57.836Z,37.31
2018-08-10T11:23:27.915Z,36.03
2018-08-10T11:25:58.089Z,35.80
2018-08-10T11:28:28.248Z,35.44
2018-08-10T11:30:58.387Z,34.62
2018-08-10T11:33:28.597Z,33.98
2018-08-10T11:35:58.722Z,34.14
2018-08-10T11:38:28.864Z,34.19
2018-08-10T11:40:59.079Z,34.34
2018-08-10T11:43:29.247Z,36.68
2018-08-10T11:45:59.414Z,32.64
2018-08-10T11:48:29.588Z,31.36
2018-08-10T11:50:59.652Z,31.89
2018-08-10T11:53:29.893Z,31.30
2018-08-10T11:56:00.058Z,30.99
2018-08-10T11:58:30.305Z,31.62
2018-08-10T12:01:00.528Z,30.81
2018-08-10T12:03:30.800Z,30.95
2018-08-10T12:06:00.998Z,30.03
2018-08-10T12:08:31.508Z,28.68
2018-08-10T12:11:01.557Z,29.13
2018-08-10T12:13:31.721Z,30.09
2018-08-10T12:16:01.965Z,29.59
2018-08-10T12:18:32.256Z,30.75
2018-08-10T12:21:02.412Z,29.48
2018-08-10T12:23:32.595Z,30.14
2018-08-10T12:26:02.715Z,28.92
2018-08-10T12:28:32.860Z,28.88
2018-08-10T12:31:03.044Z,29.89
2018-08-10T12:33:33.234Z,29.38
2018-08-10T12:36:03.525Z,29.38
2018-08-10T12:38:33.837Z,29.41
2018-08-10T12:41:04.037Z,28.74
2018-08-10T12:43:34.307Z,29.71
2018-08-10T12:46:04.572Z,31.04
2018-08-10T12:48:34.734Z,30.21
2018-08-10T12:51:04.853Z,30.82
2018-08-10T12:53:35.080Z,33.35
2018-08-10T12:56:06.032Z,30.51
2018-08-10T12:58:36.194Z,33.09
2018-08-10T13:01:09.212Z,33.13
2018-08-10T13:03:39.453Z,34.05
2018-08-10T13:06:09.626Z,32.98
2018-08-10T13:08:39.822Z,33.98
2018-08-10T13:11:09.967Z,34.26
2018-08-10T13:13:40.473Z,34.65
2018-08-10T13:16:10.730Z,35.15
2018-08-10T13:18:40.919Z,34.58
2018-08-10T13:21:11.105Z,33.69
2018-08-10T13:23:41.251Z,34.22
2018-08-10T13:26:11.449Z,33.54
2018-08-10T13:28:41.705Z,31.91
2018-08-10T13:31:12.156Z,31.16
2018-08-10T13:33:42.470Z,30.78
2018-08-10T13:36:12.628Z,31.92
2018-08-10T13:38:42.756Z,31.44
2018-08-10T13:41:12.911Z,32.77
2018-08-10T13:43:43.171Z,32.97
2018-08-10T13:46:13.341Z,31.91
2018-08-10T13:48:43.589Z,32.34
2018-08-10T13:51:13.765Z,33.32
2018-08-10T13:53:43.954Z,31.17
2018-08-10T13:56:14.281Z,30.85
2018-08-10T13:58:44.512Z,31.69
2018-08-10T14:01:15.047Z,31.44
2018-08-10T14:03:45.238Z,32.39
2018-08-10T14:06:15.353Z,32.05
2018-08-10T14:08:45.477Z,33.75
2018-08-10T14:11:15.638Z,32.06
2018-08-10T14:13:45.965Z,32.53
2018-08-10T14:16:16.295Z,32.05
2018-08-10T14:18:46.518Z,31.77
2018-08-10T14:21:16.737Z,32.37
2018-08-10T14:23:46.911Z,33.02
2018-08-10T14:26:17.018Z,33.42
2018-08-10T14:28:47.195Z,32.55
2018-08-10T14:31:17.404Z,32.08
2018-08-10T14:33:47.625Z,32.31
2018-08-10T14:36:17.860Z,31.66
2018-08-10T14:38:48.113Z,32.24
2018-08-10T14:41:18.461Z,32.75
2018-08-10T14:43:48.707Z,32.81
2018-08-10T14:46:18.827Z,32.56
2018-08-10T14:48:49.060Z,31.87
2018-08-10T14:51:19.390Z,29.93
2018-08-10T14:53:49.712Z,29.34
2018-08-10T14:56:19.834Z,28.98
2018-08-10T14:58:50.012Z,29.12
2018-08-10T15:01:20.174Z,25.42
2018-08-10T15:03:50.387Z,26.96
2018-08-10T15:06:20.527Z,28.22
2018-08-10T15:08:50.792Z,31.01
2018-08-10T15:11:20.997Z,29.38
2018-08-10T15:13:51.227Z,28.45
2018-08-10T15:16:21.411Z,27.65
2018-08-10T15:18:51.596Z,26.67
2018-08-10T15:21:21.773Z,25.05
2018-08-10T15:23:51.935Z,27.02
2018-08-10T15:26:22.132Z,29.43
2018-08-10T15:28:52.281Z,30.73
2018-08-10T15:31:22.431Z,28.96
2018-08-10T15:33:52.653Z,29.76
2018-08-10T15:36:22.828Z,30.72
2018-08-10T15:38:53.121Z,29.70
2018-08-10T15:41:23.265Z,29.92
2018-08-10T15:43:53.449Z,30.07
2018-08-10T15:46:23.558Z,29.54
2018-08-10T15:48:53.903Z,29.01
2018-08-10T15:51:24.023Z,26.49
2018-08-10T15:53:54.245Z,26.26
2018-08-10T15:56:24.492Z,25.35
2018-08-10T15:58:54.503Z,23.68
2018-08-10T16:01:24.611Z,23.91
2018-08-10T16:03:55.007Z,25.50
2018-08-10T16:06:25.154Z,25.13
2018-08-10T16:08:55.299Z,26.29
2018-08-10T16:11:25.443Z,28.57
2018-08-10T16:13:55.753Z,29.34
2018-08-10T16:16:25.919Z,29.22
2018-08-10T16:18:55.992Z,26.73
2018-08-10T16:21:26.126Z,27.35
2018-08-10T16:23:56.240Z,27.07
2018-08-10T16:26:26.350Z,26.96
2018-08-10T16:28:56.592Z,27.38
2018-08-10T16:31:26.787Z,27.07
2018-08-10T16:33:56.924Z,28.00
2018-08-10T16:36:27.042Z,29.32
2018-08-10T16:38:57.266Z,29.97
2018-08-10T16:41:27.357Z,29.66
2018-08-10T16:43:57.662Z,30.50
2018-08-10T16:46:27.815Z,30.83
2018-08-10T16:48:58.006Z,31.51
2018-08-10T16:51:28.103Z,31.61
2018-08-10T16:53:58.382Z,31.70
2018-08-10T16:56:28.561Z,31.96
2018-08-10T16:58:58.766Z,31.56
2018-08-10T17:01:29.048Z,31.79
2018-08-10T17:03:59.191Z,31.58
2018-08-10T17:06:29.325Z,30.53
2018-08-10T17:08:59.563Z,30.40
2018-08-10T17:11:29.722Z,30.06
2018-08-10T17:13:59.970Z,29.76
2018-08-10T17:16:30.126Z,30.66
2018-08-10T17:19:00.356Z,29.84
2018-08-10T17:21:30.559Z,31.40
2018-08-10T17:24:00.862Z,30.31
2018-08-10T17:26:31.115Z,31.00
2018-08-10T17:29:01.263Z,29.86
2018-08-10T17:31:31.371Z,29.60
2018-08-10T17:34:01.458Z,30.19
2018-08-10T17:36:32.265Z,31.16
2018-08-10T17:39:02.509Z,30.37
2018-08-10T17:41:32.643Z,30.83
2018-08-10T17:44:02.840Z,30.49
2018-08-10T17:46:33.200Z,30.59
2018-08-10T17:49:03.368Z,31.31
2018-08-10T17:51:33.541Z,32.74
2018-08-10T17:54:03.901Z,32.00
2018-08-10T17:56:34.159Z,32.14
2018-08-10T17:59:04.560Z,31.97
2018-08-10T18:01:34.639Z,32.27
2018-08-10T18:04:04.919Z,33.41
2018-08-10T18:06:35.047Z,34.65
2018-08-10T18:09:08.174Z,33.95
2018-08-10T18:11:38.857Z,34.21
2018-08-10T18:14:09.932Z,35.89
2018-08-10T18:16:40.035Z,35.30
2018-08-10T18:19:10.293Z,35.41
2018-08-10T18:21:40.372Z,35.23
2018-08-10T18:24:10.587Z,35.29
2018-08-10T18:26:40.791Z,35.98
2018-08-10T18:29:11.000Z,35.20
2018-08-10T18:31:41.339Z,35.41
2018-08-10T18:34:11.560Z,34.38
2018-08-10T18:36:41.771Z,34.27
2018-08-10T18:39:14.486Z,34.94
2018-08-10T18:41:44.664Z,34.65
2018-08-10T18:44:14.974Z,34.44
2018-08-10T18:46:45.167Z,35.50
2018-08-10T18:49:15.405Z,35.29
2018-08-10T18:51:45.531Z,35.38
2018-08-10T18:54:15.740Z,34.84
2018-08-10T18:56:45.860Z,35.13
2018-08-10T18:59:16.005Z,36.29
2018-08-10T19:01:46.155Z,36.46
2018-08-10T19:04:16.409Z,37.09
2018-08-10T19:06:46.697Z,37.63
2018-08-10T19:09:16.918Z,38.03
2018-08-10T19:11:47.120Z,38.29
2018-08-10T19:14:17.412Z,38.38
2018-08-10T19:16:48.087Z,38.90
2018-08-10T19:19:19.036Z,39.09
2018-08-10T19:21:49.842Z,39.34
2018-08-10T19:24:20.255Z,39.64
2018-08-10T19:26:50.560Z,40.39
2018-08-10T19:29:20.806Z,40.00
2018-08-10T19:31:51.049Z,39.79
2018-08-10T19:34:21.320Z,40.54
2018-08-10T19:36:51.695Z,40.20
2018-08-10T19:39:21.975Z,41.19
2018-08-10T19:41:52.221Z,40.52
2018-08-10T19:44:22.406Z,40.49
2018-08-10T19:46:52.604Z,40.57
2018-08-10T19:49:22.874Z,41.08
2018-08-10T19:51:53.169Z,40.77
2018-08-10T19:54:23.529Z,40.98
2018-08-10T19:56:53.846Z,41.90
2018-08-10T19:59:24.057Z,41.60
2018-08-10T20:01:54.312Z,41.82
2018-08-10T20:04:24.554Z,41.63
2018-08-10T20:06:54.642Z,43.46
2018-08-10T20:09:24.807Z,42.31
2018-08-10T20:11:54.966Z,42.63
2018-08-10T20:14:25.224Z,41.86
2018-08-10T20:16:55.454Z,42.46
2018-08-10T20:19:25.701Z,41.92
2018-08-10T20:21:55.921Z,41.54
2018-08-10T20:24:26.061Z,42.11
2018-08-10T20:26:56.151Z,42.40
2018-08-10T20:29:26.387Z,41.85
2018-08-10T20:31:56.520Z,41.83
2018-08-10T20:34:26.688Z,42.19
2018-08-10T20:36:56.859Z,42.64
2018-08-10T20:39:27.034Z,42.74
2018-08-10T20:41:57.244Z,41.33
2018-08-10T20:44:27.448Z,41.83
2018-08-10T20:46:57.572Z,41.64
2018-08-10T20:49:27.749Z,41.31
2018-08-10T20:51:57.820Z,41.15
2018-08-10T20:54:28.018Z,40.65
2018-08-10T20:56:58.196Z,40.28
2018-08-10T20:59:28.368Z,40.84
2018-08-10T21:01:58.493Z,40.11
2018-08-10T21:04:28.749Z,40.17
2018-08-10T21:06:58.827Z,39.71
2018-08-10T21:09:28.973Z,39.77
2018-08-10T21:11:59.126Z,40.21
2018-08-10T21:14:29.272Z,40.82
2018-08-10T21:16:59.502Z,39.52
2018-08-10T21:19:29.613Z,40.18
2018-08-10T21:21:59.809Z,41.09
2018-08-10T21:24:30.007Z,40.35
2018-08-10T21:27:00.150Z,40.49
2018-08-10T21:29:30.419Z,40.44
2018-08-10T21:32:00.449Z,41.19
2018-08-10T21:34:30.680Z,40.88
2018-08-10T21:37:00.834Z,40.85
2018-08-10T21:39:30.996Z,40.62
2018-08-10T21:42:01.153Z,41.54
2018-08-10T21:44:31.333Z,41.26
2018-08-10T21:47:01.436Z,42.57
2018-08-10T21:49:31.596Z,41.60
2018-08-10T21:52:01.711Z,41.16
2018-08-10T21:54:31.851Z,41.91
2018-08-10T21:57:01.970Z,41.96
2018-08-10T21:59:32.090Z,41.67
2018-08-10T22:02:02.460Z,41.74
2018-08-10T22:04:32.689Z,41.34
2018-08-10T22:07:02.861Z,41.31
2018-08-10T22:09:33.061Z,42.75
2018-08-10T22:12:03.145Z,41.49
2018-08-10T22:14:39.252Z,41.56
2018-08-10T22:17:14.444Z,41.45
2018-08-10T22:19:44.575Z,41.76
2018-08-10T22:22:14.820Z,41.91
2018-08-10T22:24:44.963Z,42.15
2018-08-10T22:27:15.099Z,41.19
2018-08-10T22:29:45.275Z,41.81
2018-08-10T22:32:15.413Z,41.39
2018-08-10T22:34:45.605Z,41.63
2018-08-10T22:37:15.726Z,42.67
2018-08-10T22:39:45.805Z,42.13
2018-08-10T22:42:15.937Z,41.60
2018-08-10T22:44:46.118Z,42.40
2018-08-10T22:47:17.180Z,42.62
2018-08-10T22:49:47.304Z,42.75
2018-08-10T22:52:17.464Z,42.98
2018-08-10T22:54:47.671Z,43.58
2018-08-10T22:57:17.807Z,44.15
2018-08-10T22:59:48.035Z,44.14
2018-08-10T23:02:18.160Z,44.34
2018-08-10T23:04:48.386Z,44.33
2018-08-10T23:07:18.589Z,44.50
2018-08-10T23:09:48.774Z,44.06
2018-08-10T23:12:19.063Z,44.42
2018-08-10T23:14:49.410Z,45.03
2018-08-10T23:17:19.574Z,45.11
2018-08-10T23:19:49.724Z,44.52
2018-08-10T23:22:20.159Z,45.20
2018-08-10T23:24:50.391Z,44.73
2018-08-10T23:27:20.516Z,45.50
2018-08-10T23:29:50.676Z,46.00
2018-08-10T23:32:20.754Z,46.65
2018-08-10T23:34:50.908Z,46.81
2018-08-10T23:37:20.993Z,46.44
2018-08-10T23:39:51.155Z,46.32
2018-08-10T23:42:21.268Z,46.33
2018-08-10T23:44:51.443Z,45.82
2018-08-10T23:47:21.521Z,45.94
2018-08-10T23:49:51.714Z,45.85
2018-08-10T23:52:21.839Z,45.64
2018-08-10T23:54:51.958Z,45.70
2018-08-10T23:57:22.000Z,45.74
2018-08-10T23:59:52.145Z,45.78
